createdAt,value
2023-01-17T00:00:12.980Z,19.40
2023-01-17T00:03:04.895Z,19.50
2023-01-17T00:05:52.108Z,20.40
2023-01-17T00:08:55.716Z,20.80
2023-01-17T00:13:58.539Z,19.20
2023-01-17T00:16:27.126Z,22.00
2023-01-17T00:19:16.780Z,20.90
2023-01-17T00:22:07.597Z,19.00
2023-01-17T00:25:00.807Z,18.90
2023-01-17T00:27:30.367Z,21.10
2023-01-17T00:30:03.679Z,23.10
2023-01-17T00:32:32.150Z,21.70
2023-01-17T00:35:03.205Z,16.20
2023-01-17T00:37:31.619Z,17.70
2023-01-17T00:40:02.599Z,15.20
2023-01-17T00:42:35.957Z,17.00
2023-01-17T00:45:34.325Z,12.70
2023-01-17T00:48:24.461Z,13.00
2023-01-17T00:51:12.665Z,10.90
2023-01-17T00:54:02.270Z,9.20
2023-01-17T00:56:49.417Z,8.30
2023-01-17T00:59:36.477Z,7.80
2023-01-17T01:02:29.179Z,7.30
2023-01-17T01:05:18.924Z,8.60
2023-01-17T01:08:08.604Z,8.10
2023-01-17T01:11:00.759Z,7.90
2023-01-17T01:13:54.144Z,8.90
2023-01-17T01:19:28.189Z,7.60
2023-01-17T01:22:20.837Z,7.90
2023-01-17T01:25:08.005Z,8.90
2023-01-17T01:27:55.208Z,8.80
2023-01-17T01:30:42.751Z,10.10
2023-01-17T01:33:21.021Z,9.80
2023-01-17T01:35:55.207Z,9.90
2023-01-17T01:38:25.618Z,9.10
2023-01-17T01:40:58.817Z,9.90
2023-01-17T01:43:39.835Z,9.80
2023-01-17T01:46:11.807Z,9.40
2023-01-17T01:49:13.406Z,10.20
2023-01-17T01:51:46.588Z,9.60
2023-01-17T01:54:25.962Z,10.40
2023-01-17T01:56:57.878Z,9.90
2023-01-17T01:59:26.979Z,9.50
2023-01-17T02:02:01.360Z,10.30
2023-01-17T02:04:35.508Z,9.00
2023-01-17T02:07:15.485Z,8.40
2023-01-17T02:09:45.051Z,9.40
2023-01-17T02:12:13.973Z,9.70
2023-01-17T02:14:44.962Z,8.30
2023-01-17T02:17:31.706Z,7.60
2023-01-17T02:20:28.534Z,5.90
2023-01-17T02:23:15.489Z,6.90
2023-01-17T02:25:53.083Z,6.00
2023-01-17T02:28:49.671Z,7.40
2023-01-17T02:31:46.148Z,8.80
2023-01-17T02:34:28.844Z,9.50
2023-01-17T02:37:24.245Z,11.10
2023-01-17T02:40:06.531Z,10.80
2023-01-17T02:42:42.419Z,10.30
2023-01-17T02:45:18.422Z,11.10
2023-01-17T02:47:47.079Z,11.30
2023-01-17T02:50:19.658Z,11.80
2023-01-17T02:52:57.085Z,8.40
2023-01-17T02:55:58.744Z,11.10
2023-01-17T02:58:56.112Z,11.30
2023-01-17T03:01:59.847Z,10.40
2023-01-17T03:05:12.428Z,10.10
2023-01-17T03:07:44.482Z,8.80
2023-01-17T03:10:17.302Z,11.20
2023-01-17T03:12:46.878Z,10.90
2023-01-17T03:15:17.798Z,9.30
2023-01-17T03:17:49.854Z,8.60
2023-01-17T03:20:18.492Z,8.70
2023-01-17T03:22:47.205Z,9.10
2023-01-17T03:25:16.915Z,8.80
2023-01-17T03:27:45.536Z,9.10
2023-01-17T03:30:14.540Z,7.90
2023-01-17T03:32:46.996Z,7.60
2023-01-17T03:35:21.256Z,6.30
2023-01-17T03:37:52.750Z,7.00
2023-01-17T03:40:23.904Z,7.40
2023-01-17T03:42:52.625Z,8.90
2023-01-17T03:45:21.288Z,8.20
2023-01-17T03:47:49.945Z,9.00
2023-01-17T03:50:18.563Z,9.30
2023-01-17T03:52:53.891Z,9.10
2023-01-17T03:55:22.459Z,9.00
2023-01-17T03:57:51.008Z,9.40
2023-01-17T04:00:21.045Z,10.80
2023-01-17T04:02:50.669Z,9.80
2023-01-17T04:05:20.078Z,9.20
2023-01-17T04:07:48.622Z,9.40
2023-01-17T04:10:18.480Z,9.60
2023-01-17T04:12:47.304Z,9.00
2023-01-17T04:15:20.582Z,9.30
2023-01-17T04:17:49.264Z,10.40
2023-01-17T04:20:29.779Z,9.80
2023-01-17T04:23:04.534Z,11.60
2023-01-17T04:25:40.883Z,11.50
2023-01-17T04:28:18.416Z,13.30
2023-01-17T04:30:58.214Z,13.90
2023-01-17T04:33:26.864Z,13.90
2023-01-17T04:35:55.937Z,13.30
2023-01-17T04:38:27.634Z,10.90
2023-01-17T04:41:01.580Z,10.30
2023-01-17T04:43:32.496Z,6.80
2023-01-17T04:46:10.919Z,6.80
2023-01-17T04:48:39.613Z,8.10
2023-01-17T04:51:08.275Z,4.80
2023-01-17T04:53:42.141Z,5.60
2023-01-17T04:56:13.354Z,4.30
2023-01-17T04:58:42.120Z,4.50
2023-01-17T05:01:13.750Z,3.70
2023-01-17T05:03:44.604Z,3.60
2023-01-17T05:06:13.141Z,3.50
2023-01-17T05:08:52.515Z,3.40
2023-01-17T05:11:21.135Z,3.30
2023-01-17T05:13:52.474Z,4.20
2023-01-17T05:16:21.269Z,3.60
2023-01-17T05:18:58.622Z,3.60
2023-01-17T05:21:27.114Z,3.60
2023-01-17T05:23:58.799Z,3.90
2023-01-17T05:26:27.319Z,4.40
2023-01-17T05:28:55.806Z,4.70
2023-01-17T05:31:24.439Z,4.40
2023-01-17T05:33:52.922Z,4.40
2023-01-17T05:36:21.495Z,4.80
2023-01-17T05:38:50.151Z,4.40
2023-01-17T05:41:18.742Z,4.70
2023-01-17T05:43:47.267Z,4.30
2023-01-17T05:46:16.491Z,4.20
2023-01-17T05:48:45.047Z,4.20
2023-01-17T05:51:13.536Z,3.90
2023-01-17T05:53:42.014Z,5.20
2023-01-17T05:56:10.743Z,4.60
2023-01-17T05:58:40.334Z,5.60
2023-01-17T06:01:08.954Z,5.10
2023-01-17T06:03:37.938Z,5.60
2023-01-17T06:06:11.603Z,5.20
2023-01-17T06:08:40.640Z,4.90
2023-01-17T06:11:09.332Z,4.80
2023-01-17T06:13:37.929Z,5.00
2023-01-17T06:16:06.968Z,5.50
2023-01-17T06:18:35.715Z,6.10
2023-01-17T06:21:05.451Z,5.80
2023-01-17T06:23:35.057Z,6.00
2023-01-17T06:26:05.045Z,6.70
2023-01-17T06:28:34.254Z,6.20
2023-01-17T06:31:08.124Z,5.90
2023-01-17T06:33:37.868Z,6.50
2023-01-17T06:36:06.576Z,7.20
2023-01-17T06:38:38.287Z,6.70
2023-01-17T06:41:07.056Z,7.40
2023-01-17T06:43:35.863Z,7.30
2023-01-17T06:46:05.303Z,6.70
2023-01-17T06:48:34.100Z,6.60
2023-01-17T06:51:02.637Z,8.00
2023-01-17T06:53:31.435Z,7.70
2023-01-17T06:56:00.595Z,8.00
2023-01-17T06:58:29.199Z,8.20
2023-01-17T07:00:57.892Z,8.00
2023-01-17T07:03:27.481Z,6.90
2023-01-17T07:06:01.420Z,6.80
2023-01-17T07:08:35.376Z,6.30
2023-01-17T07:11:06.810Z,7.60
2023-01-17T07:13:43.846Z,8.40
2023-01-17T07:16:13.556Z,7.80
2023-01-17T07:22:13.232Z,9.30
2023-01-17T07:24:48.940Z,8.10
2023-01-17T07:27:17.574Z,8.70
2023-01-17T07:29:54.206Z,8.80
2023-01-17T07:32:32.036Z,9.80
2023-01-17T07:35:06.332Z,12.80
2023-01-17T07:37:56.512Z,12.50
2023-01-17T07:40:29.138Z,13.10
2023-01-17T07:43:16.926Z,12.70
2023-01-17T07:45:53.506Z,12.30
2023-01-17T07:48:25.542Z,11.60
2023-01-17T07:50:58.744Z,11.40
2023-01-17T07:53:30.021Z,11.20
2023-01-17T07:59:24.182Z,10.80
2023-01-17T08:01:55.867Z,10.30
2023-01-17T08:04:35.378Z,8.30
2023-01-17T08:07:07.062Z,9.10
2023-01-17T08:09:39.295Z,9.00
2023-01-17T08:12:19.405Z,10.00
2023-01-17T08:14:48.006Z,8.50
2023-01-17T08:17:20.618Z,5.80
2023-01-17T08:19:53.328Z,5.10
2023-01-17T08:22:22.620Z,9.10
2023-01-17T08:25:01.584Z,10.00
2023-01-17T08:27:37.302Z,9.50
2023-01-17T08:30:31.930Z,4.70
2023-01-17T08:33:04.639Z,3.10
2023-01-17T08:35:35.570Z,3.80
2023-01-17T08:38:07.363Z,1.70
2023-01-17T08:40:36.036Z,1.80
2023-01-17T08:43:17.736Z,1.60
2023-01-17T08:45:50.525Z,1.60
2023-01-17T08:48:24.184Z,1.40
2023-01-17T08:51:04.159Z,1.30
2023-01-17T08:53:34.382Z,1.80
2023-01-17T08:56:05.475Z,3.00
2023-01-17T08:58:36.279Z,1.10
2023-01-17T09:01:10.449Z,1.30
2023-01-17T09:03:40.903Z,1.10
2023-01-17T09:06:12.840Z,1.60
2023-01-17T09:08:42.316Z,1.10
2023-01-17T09:11:13.005Z,1.20
2023-01-17T09:13:42.381Z,1.40
2023-01-17T09:16:15.324Z,0.90
2023-01-17T09:18:43.951Z,1.10
2023-01-17T09:21:22.755Z,1.10
2023-01-17T09:23:58.167Z,0.90
2023-01-17T09:26:30.538Z,1.50
2023-01-17T09:29:02.364Z,2.60
2023-01-17T09:31:34.279Z,3.00
2023-01-17T09:34:06.735Z,2.50
2023-01-17T09:36:35.587Z,2.60
2023-01-17T09:39:16.030Z,2.70
2023-01-17T09:41:50.736Z,2.60
2023-01-17T09:44:22.279Z,2.70
2023-01-17T09:47:03.454Z,2.90
2023-01-17T09:49:43.964Z,2.20
2023-01-17T09:52:21.212Z,2.60
2023-01-17T09:54:51.684Z,1.90
2023-01-17T09:57:23.043Z,2.20
2023-01-17T10:00:06.170Z,1.90
2023-01-17T10:02:54.030Z,2.10
2023-01-17T10:05:28.653Z,2.50
2023-01-17T10:08:34.084Z,2.10
2023-01-17T10:11:23.532Z,2.00
2023-01-17T10:14:20.498Z,2.10
2023-01-17T10:17:07.971Z,2.80
2023-01-17T10:20:04.348Z,4.00
2023-01-17T10:22:52.453Z,2.40
2023-01-17T10:25:43.275Z,1.80
2023-01-17T10:28:22.889Z,2.30
2023-01-17T10:31:06.338Z,1.70
2023-01-17T10:33:45.110Z,1.70
2023-01-17T10:36:26.448Z,1.90
2023-01-17T10:39:00.915Z,0.70
2023-01-17T10:41:33.963Z,1.00
2023-01-17T10:44:27.498Z,0.70
2023-01-17T10:47:06.136Z,1.10
2023-01-17T10:49:43.088Z,0.90
2023-01-17T10:52:37.498Z,0.70
2023-01-17T10:55:25.831Z,1.40
2023-01-17T10:57:55.461Z,1.10
2023-01-17T11:00:46.776Z,1.00
2023-01-17T11:03:17.663Z,1.40
2023-01-17T11:05:46.402Z,1.20
2023-01-17T11:08:15.228Z,1.10
2023-01-17T11:10:49.074Z,0.80
2023-01-17T11:13:34.417Z,1.10
2023-01-17T11:16:17.022Z,1.50
2023-01-17T11:18:45.988Z,1.60
2023-01-17T11:21:25.863Z,1.40
2023-01-17T11:23:59.045Z,1.00
2023-01-17T11:26:33.377Z,1.00
2023-01-17T11:29:37.498Z,1.20
2023-01-17T11:32:21.639Z,0.90
2023-01-17T11:38:27.741Z,1.00
2023-01-17T11:41:16.238Z,1.00
2023-01-17T11:43:59.201Z,1.20
2023-01-17T11:46:31.119Z,1.00
2023-01-17T11:49:02.320Z,1.20
2023-01-17T11:51:44.365Z,0.90
2023-01-17T11:54:26.028Z,1.10
2023-01-17T11:57:02.106Z,0.80
2023-01-17T11:59:37.784Z,0.80
2023-01-17T12:02:32.092Z,1.20
2023-01-17T12:05:06.004Z,0.90
2023-01-17T12:08:05.804Z,1.20
2023-01-17T12:10:56.443Z,0.80
2023-01-17T12:14:00.013Z,0.90
2023-01-17T12:16:50.559Z,1.20
2023-01-17T12:19:32.860Z,1.10
2023-01-17T12:22:35.295Z,1.10
2023-01-17T12:25:23.837Z,1.00
2023-01-17T12:28:27.250Z,0.90
2023-01-17T12:31:11.306Z,1.40
2023-01-17T12:33:59.080Z,1.10
2023-01-17T12:36:50.126Z,1.20
2023-01-17T12:39:22.740Z,1.00
2023-01-17T12:41:59.987Z,0.90
2023-01-17T12:44:51.981Z,1.10
2023-01-17T12:47:24.343Z,1.10
2023-01-17T12:49:52.955Z,2.00
2023-01-17T12:52:37.446Z,1.50
2023-01-17T12:55:12.360Z,1.10
2023-01-17T12:57:48.132Z,1.00
2023-01-17T13:00:23.302Z,1.30
2023-01-17T13:03:20.587Z,1.00
2023-01-17T13:05:53.507Z,1.10
2023-01-17T13:08:49.876Z,0.90
2023-01-17T13:11:28.808Z,0.90
2023-01-17T13:14:00.119Z,1.30
2023-01-17T13:16:59.031Z,0.80
2023-01-17T13:19:36.984Z,0.70
2023-01-17T13:22:10.046Z,0.90
2023-01-17T13:24:52.347Z,1.10
2023-01-17T13:27:39.950Z,0.90
2023-01-17T13:30:43.727Z,0.90
2023-01-17T13:33:39.376Z,0.70
2023-01-17T13:36:33.025Z,1.20
2023-01-17T13:39:40.743Z,1.10
2023-01-17T13:42:24.110Z,0.80
2023-01-17T13:44:52.891Z,1.30
2023-01-17T13:47:23.676Z,1.00
2023-01-17T13:49:56.650Z,0.90
2023-01-17T13:52:25.300Z,0.90
2023-01-17T13:54:56.452Z,0.90
2023-01-17T13:57:43.744Z,1.00
2023-01-17T14:00:34.224Z,1.70
2023-01-17T14:03:03.066Z,1.30
2023-01-17T14:05:31.470Z,1.30
2023-01-17T14:08:15.144Z,1.40
2023-01-17T14:10:53.987Z,1.10
2023-01-17T14:13:36.065Z,1.50
2023-01-17T14:16:29.330Z,1.20
2023-01-17T14:21:32.220Z,1.40
2023-01-17T14:24:13.220Z,1.30
2023-01-17T14:26:51.725Z,1.20
2023-01-17T14:29:46.821Z,1.50
2023-01-17T14:32:19.204Z,1.50
2023-01-17T14:34:50.587Z,1.40
2023-01-17T14:37:22.939Z,1.20
2023-01-17T14:39:52.305Z,1.40
2023-01-17T14:42:24.465Z,1.90
2023-01-17T14:45:02.504Z,1.20
2023-01-17T14:47:35.395Z,2.00
2023-01-17T14:50:26.237Z,1.50
2023-01-17T14:53:13.570Z,1.80
2023-01-17T14:55:48.376Z,2.00
2023-01-17T14:58:23.952Z,1.80
2023-01-17T15:01:02.657Z,1.90
2023-01-17T15:03:35.859Z,2.30
2023-01-17T15:06:20.120Z,2.40
2023-01-17T15:08:50.270Z,2.10
2023-01-17T15:11:25.389Z,3.00
2023-01-17T15:13:57.668Z,2.80
2023-01-17T15:16:27.505Z,2.90
2023-01-17T15:18:57.763Z,3.30
2023-01-17T15:21:42.530Z,3.40
2023-01-17T15:24:21.691Z,3.50
2023-01-17T15:26:50.413Z,2.90
2023-01-17T15:29:27.054Z,2.60
2023-01-17T15:32:00.788Z,3.70
2023-01-17T15:34:40.976Z,4.50
2023-01-17T15:37:30.975Z,3.90
2023-01-17T15:40:26.839Z,4.60
2023-01-17T15:43:01.181Z,3.50
2023-01-17T15:45:33.857Z,2.60
2023-01-17T15:48:36.696Z,3.00
2023-01-17T15:51:06.348Z,3.80
2023-01-17T15:53:38.923Z,2.90
2023-01-17T15:56:32.009Z,3.30
2023-01-17T15:59:20.928Z,3.70
2023-01-17T16:01:56.412Z,2.60
2023-01-17T16:04:33.737Z,3.00
2023-01-17T16:07:35.567Z,3.80
2023-01-17T16:10:15.674Z,7.50
2023-01-17T16:12:53.402Z,11.90
2023-01-17T16:15:26.010Z,4.90
2023-01-17T16:18:16.872Z,4.80
2023-01-17T16:20:55.305Z,3.60
2023-01-17T16:23:29.147Z,3.50
2023-01-17T16:26:00.817Z,3.00
2023-01-17T16:28:30.227Z,3.00
2023-01-17T16:30:58.732Z,2.80
2023-01-17T16:33:27.294Z,3.00
2023-01-17T16:35:56.136Z,3.30
2023-01-17T16:38:24.651Z,2.70
2023-01-17T16:40:54.274Z,2.90
2023-01-17T16:43:23.749Z,2.30
2023-01-17T16:45:54.310Z,2.80
2023-01-17T16:48:22.923Z,2.60
2023-01-17T16:50:54.027Z,2.90
2023-01-17T16:53:25.582Z,3.60
2023-01-17T16:55:57.744Z,2.70
2023-01-17T16:58:26.325Z,2.80
2023-01-17T17:00:56.752Z,2.70
2023-01-17T17:03:25.588Z,2.50
2023-01-17T17:05:59.887Z,2.90
2023-01-17T17:08:29.698Z,3.10
2023-01-17T17:11:14.863Z,2.50
2023-01-17T17:13:46.929Z,3.00
2023-01-17T17:16:22.012Z,3.30
2023-01-17T17:19:06.091Z,2.40
2023-01-17T17:21:35.539Z,2.30
2023-01-17T17:24:04.549Z,2.90
2023-01-17T17:26:36.472Z,2.50
2023-01-17T17:29:06.819Z,2.60
2023-01-17T17:31:35.450Z,3.10
2023-01-17T17:34:09.291Z,2.70
2023-01-17T17:36:39.038Z,3.10
2023-01-17T17:39:11.707Z,3.50
2023-01-17T17:41:43.152Z,3.00
2023-01-17T17:44:18.559Z,3.60
2023-01-17T17:46:50.100Z,3.80
2023-01-17T17:49:18.613Z,3.70
2023-01-17T17:51:48.264Z,3.60
2023-01-17T17:54:20.125Z,3.20
2023-01-17T17:56:49.637Z,3.30
2023-01-17T17:59:19.681Z,3.60
2023-01-17T18:01:48.899Z,3.50
2023-01-17T18:04:19.244Z,3.90
2023-01-17T18:06:48.019Z,3.80
2023-01-17T18:09:17.883Z,3.80
2023-01-17T18:11:46.258Z,3.70
2023-01-17T18:14:15.886Z,3.50
2023-01-17T18:16:45.027Z,3.70
2023-01-17T18:19:40.331Z,3.50
2023-01-17T18:22:08.897Z,4.20
2023-01-17T18:24:37.664Z,4.00
2023-01-17T18:27:06.601Z,3.60
2023-01-17T18:29:35.637Z,4.20
2023-01-17T18:32:04.251Z,4.20
2023-01-17T18:34:34.907Z,4.00
2023-01-17T18:37:03.383Z,4.40
2023-01-17T18:39:32.398Z,4.50
2023-01-17T18:42:01.363Z,4.70
2023-01-17T18:44:30.538Z,4.80
2023-01-17T18:47:04.592Z,4.40
2023-01-17T18:49:34.345Z,4.60
2023-01-17T18:52:03.711Z,5.20
2023-01-17T18:54:32.971Z,5.90
2023-01-17T18:57:07.790Z,5.90
2023-01-17T18:59:36.984Z,6.00
2023-01-17T19:02:07.159Z,5.50
2023-01-17T19:04:38.050Z,5.00
2023-01-17T19:07:12.526Z,5.50
2023-01-17T19:09:41.894Z,4.90
2023-01-17T19:12:11.036Z,5.20
2023-01-17T19:14:40.133Z,5.20
2023-01-17T19:17:09.310Z,5.30
2023-01-17T19:19:41.436Z,5.00
2023-01-17T19:22:10.694Z,5.50
2023-01-17T19:24:40.701Z,5.70
2023-01-17T19:27:21.249Z,6.30
2023-01-17T19:29:50.527Z,7.40
2023-01-17T19:32:19.681Z,7.80
2023-01-17T19:34:51.530Z,8.50
2023-01-17T19:37:20.745Z,7.80
2023-01-17T19:39:51.785Z,8.80
2023-01-17T19:42:23.497Z,7.90
2023-01-17T19:44:52.716Z,7.60
2023-01-17T19:47:22.004Z,7.90
2023-01-17T19:49:51.152Z,7.60
2023-01-17T19:52:22.359Z,7.60
2023-01-17T19:54:52.167Z,7.60
2023-01-17T19:57:24.483Z,8.60
2023-01-17T19:59:54.699Z,8.50
2023-01-17T20:02:23.941Z,8.30
2023-01-17T20:04:53.261Z,7.80
2023-01-17T20:07:23.150Z,7.40
2023-01-17T20:09:52.229Z,6.20
2023-01-17T20:12:21.283Z,6.60
2023-01-17T20:14:52.259Z,7.20
2023-01-17T20:17:21.736Z,6.00
2023-01-17T20:19:50.944Z,6.50
2023-01-17T20:22:21.790Z,6.10
2023-01-17T20:24:51.165Z,6.60
2023-01-17T20:27:26.730Z,6.20
2023-01-17T20:29:56.687Z,7.30
2023-01-17T20:32:25.718Z,7.30
2023-01-17T20:34:55.043Z,7.50
2023-01-17T20:37:24.073Z,7.40
2023-01-17T20:39:54.317Z,6.20
2023-01-17T20:42:23.667Z,6.60
2023-01-17T20:44:52.831Z,7.10
2023-01-17T20:47:22.304Z,7.10
2023-01-17T20:49:51.370Z,6.90
2023-01-17T20:52:20.547Z,7.30
2023-01-17T20:54:50.423Z,7.60
2023-01-17T20:57:20.296Z,7.40
2023-01-17T20:59:49.469Z,7.70
2023-01-17T21:02:21.343Z,8.00
2023-01-17T21:04:50.517Z,7.00
2023-01-17T21:07:20.493Z,7.60
2023-01-17T21:09:49.859Z,6.90
2023-01-17T21:12:19.180Z,6.90
2023-01-17T21:14:48.480Z,6.30
2023-01-17T21:17:18.827Z,5.50
2023-01-17T21:19:47.730Z,6.40
2023-01-17T21:22:17.180Z,6.60
2023-01-17T21:24:45.940Z,6.90
2023-01-17T21:27:17.156Z,6.90
2023-01-17T21:29:45.842Z,8.40
2023-01-17T21:32:14.793Z,9.80
2023-01-17T21:34:43.421Z,9.40
2023-01-17T21:37:12.774Z,9.90
2023-01-17T21:39:42.273Z,11.60
2023-01-17T21:42:13.591Z,11.40
2023-01-17T21:44:49.578Z,10.10
2023-01-17T21:47:18.338Z,9.20
2023-01-17T21:49:46.996Z,10.00
2023-01-17T21:52:18.470Z,10.80
2023-01-17T21:55:05.582Z,10.90
2023-01-17T21:57:52.570Z,9.10
2023-01-17T22:00:26.220Z,8.60
2023-01-17T22:02:54.953Z,8.60
2023-01-17T22:05:24.337Z,8.30
2023-01-17T22:08:11.562Z,8.10
2023-01-17T22:10:47.178Z,7.30
2023-01-17T22:13:19.968Z,6.40
2023-01-17T22:15:58.616Z,7.00
2023-01-17T22:18:28.059Z,6.70
2023-01-17T22:20:57.843Z,7.10
2023-01-17T22:23:27.024Z,6.40
2023-01-17T22:26:02.781Z,6.30
2023-01-17T22:28:33.725Z,7.10
2023-01-17T22:31:17.278Z,5.90
2023-01-17T22:33:47.781Z,6.40
2023-01-17T22:36:16.492Z,6.00
2023-01-17T22:38:45.348Z,6.00
2023-01-17T22:41:16.644Z,6.20
2023-01-17T22:43:48.154Z,6.50
2023-01-17T22:46:19.322Z,6.00
2023-01-17T22:48:48.257Z,5.90
2023-01-17T22:51:18.863Z,5.70
2023-01-17T22:53:53.075Z,6.20
2023-01-17T22:56:27.643Z,5.50
2023-01-17T22:58:56.496Z,5.70
2023-01-17T23:01:28.459Z,6.00
2023-01-17T23:04:02.194Z,6.10
2023-01-17T23:06:36.111Z,5.40
2023-01-17T23:09:10.913Z,5.60
2023-01-17T23:11:50.048Z,5.70
2023-01-17T23:14:27.083Z,5.60
2023-01-17T23:17:16.121Z,5.20
2023-01-17T23:19:56.826Z,5.70
2023-01-17T23:22:27.280Z,5.70
2023-01-17T23:24:55.913Z,5.40
2023-01-17T23:28:00.020Z,5.10
2023-01-17T23:33:00.113Z,5.00
2023-01-17T23:35:31.882Z,5.70
2023-01-17T23:38:22.442Z,5.30
2023-01-17T23:41:10.155Z,5.50
2023-01-17T23:43:38.769Z,5.60
2023-01-17T23:46:12.481Z,5.60
2023-01-17T23:48:41.140Z,7.10
2023-01-17T23:51:09.788Z,7.90
2023-01-17T23:53:39.500Z,7.90
2023-01-17T23:56:16.637Z,8.10
2023-01-17T23:58:50.985Z,6.80
